Time;durP1;ratioP1;P1;durP2;ratioP2;P2;SDS_P1;SDS_P2;PMS_P1;PMS_P2;Temp;Humidity;BMP_temperature;BMP_pressure;BME280_temperature;BME280_humidity;BME280_pressure;Samples;Min_cycle;Max_cycle;Signal;HPM_P1;HPM_P2
2024/01/10 00:00:12;;;;;;;;;;;0.20;80.30;;;;;;4126612;28;20024;-83
2024/01/10 00:02:31;;;;;;;;;;;0.20;80.30;;;;;;4124274;28;20046;-81
2024/01/10 00:04:50;;;;;;;;;;;0.20;80.30;;;;;;4123842;28;19973;-82
2024/01/10 00:07:09;;;;;;;;;;;0.20;80.20;;;;;;4125276;28;19972;-82
2024/01/10 00:09:29;;;;;;;;;;;0.10;80.80;;;;;;4138947;28;19960;-82
2024/01/10 00:11:48;;;;;;;;;;;0.20;80.10;;;;;;4126172;28;20422;-82
2024/01/10 00:14:07;;;;;;;;;;;0.20;80.10;;;;;;4120097;28;20027;-83
2024/01/10 00:16:26;;;;;;;;;;;0.20;80.00;;;;;;4123426;28;19948;-82
2024/01/10 00:18:46;;;;;;;;;;;0.20;80.00;;;;;;4123804;28;19952;-83
2024/01/10 00:21:05;;;;;;;;;;;0.20;80.00;;;;;;4120306;23;19942;-82
2024/01/10 00:23:24;;;;;;;;;;;0.10;80.00;;;;;;4093125;28;19933;-81
2024/01/10 00:25:43;;;;;;;;;;;0.20;80.00;;;;;;4084073;28;20063;-81
2024/01/10 00:28:03;;;;;;;;;;;0.10;79.90;;;;;;4088216;28;19997;-81
2024/01/10 00:30:22;;;;;;;;;;;0.20;80.00;;;;;;4090316;28;19994;-81
2024/01/10 00:32:41;;;;;;;;;;;0.20;80.00;;;;;;4076016;29;19974;-81
2024/01/10 00:35:00;;;;;;;;;;;0.20;80.00;;;;;;4086366;28;19921;-81
2024/01/10 00:37:20;;;;;;;;;;;0.30;80.10;;;;;;4074658;29;19953;-81
2024/01/10 00:39:39;;;;;;;;;;;0.10;80.10;;;;;;4077953;29;19929;-82
2024/01/10 00:41:58;;;;;;;;;;;0.10;80.80;;;;;;4078774;29;19978;-82
2024/01/10 00:44:18;;;;;;;;;;;0.20;80.00;;;;;;4077433;29;19925;-81
2024/01/10 00:46:37;;;;;;;;;;;0.20;80.00;;;;;;4108547;28;19933;-81
2024/01/10 00:48:57;;;;;;;;;;;0.20;79.90;;;;;;4083596;29;19975;-81
2024/01/10 00:51:16;;;;;;;;;;;0.20;79.90;;;;;;4082123;29;20655;-81
2024/01/10 00:53:35;;;;;;;;;;;0.20;80.60;;;;;;4080720;29;19982;-83
2024/01/10 00:55:54;;;;;;;;;;;0.20;79.90;;;;;;4082225;29;19962;-82
2024/01/10 00:58:13;;;;;;;;;;;0.10;79.80;;;;;;4078761;29;20431;-82
2024/01/10 01:00:33;;;;;;;;;;;0.20;79.90;;;;;;4080703;29;20574;-82
2024/01/10 01:02:52;;;;;;;;;;;0.10;80.00;;;;;;4094032;28;20149;-82
2024/01/10 01:05:11;;;;;;;;;;;0.20;80.60;;;;;;4079483;29;19937;-82
2024/01/10 01:07:31;;;;;;;;;;;0.10;79.80;;;;;;4093526;28;19969;-81
2024/01/10 01:09:50;;;;;;;;;;;0.10;80.60;;;;;;4079284;29;19989;-81
2024/01/10 01:12:09;;;;;;;;;;;0.10;79.90;;;;;;4078178;29;20011;-82
2024/01/10 01:14:28;;;;;;;;;;;0.10;79.90;;;;;;4089784;28;19934;-82
2024/01/10 01:16:48;;;;;;;;;;;0.10;80.00;;;;;;4076500;29;20090;-81
2024/01/10 01:19:07;;;;;;;;;;;0.10;80.10;;;;;;4090392;28;19929;-82
2024/01/10 01:21:26;;;;;;;;;;;0.10;80.80;;;;;;4078066;29;19933;-82
2024/01/10 01:23:45;;;;;;;;;;;0.10;80.80;;;;;;4087673;28;19929;-81
2024/01/10 01:26:04;;;;;;;;;;;0.10;80.10;;;;;;4079400;29;19939;-81
2024/01/10 01:28:24;;;;;;;;;;;0.10;80.20;;;;;;4075329;29;19945;-82
2024/01/10 01:30:43;;;;;;;;;;;0.10;80.20;;;;;;4089462;28;20740;-82
2024/01/10 01:33:04;;;;;;;;;;;0.10;80.20;;;;;;4069192;29;20930;-82
2024/01/10 01:35:23;;;;;;;;;;;0.20;80.10;;;;;;4084804;28;19956;-82
2024/01/10 01:37:43;;;;;;;;;;;0.10;80.20;;;;;;4072251;29;19957;-81
2024/01/10 01:40:02;;;;;;;;;;;0.10;80.20;;;;;;4076850;29;20890;-81
2024/01/10 01:42:21;;;;;;;;;;;0.10;80.30;;;;;;4090778;28;19918;-82
2024/01/10 01:44:41;;;;;;;;;;;0.10;80.30;;;;;;4078022;29;20014;-81
2024/01/10 01:47:01;;;;;;;;;;;0.10;80.30;;;;;;4077658;29;19949;-80
2024/01/10 01:49:20;;;;;;;;;;;0.10;80.30;;;;;;4091565;28;19930;-82
2024/01/10 01:51:40;;;;;;;;;;;0.20;81.10;;;;;;4079249;29;19997;-81
2024/01/10 01:53:59;;;;;;;;;;;0.10;80.30;;;;;;4074980;29;19929;-82
2024/01/10 01:56:18;;;;;;;;;;;0.20;81.10;;;;;;4076481;29;19921;-81
2024/01/10 01:58:37;;;;;;;;;;;0.20;80.40;;;;;;4077630;29;19978;-81
2024/01/10 02:00:56;;;;;;;;;;;0.20;80.50;;;;;;4083690;28;20244;-81
2024/01/10 02:03:16;;;;;;;;;;;0.20;80.50;;;;;;4076093;29;19950;-81
2024/01/10 02:05:35;;;;;;;;;;;0.20;80.50;;;;;;4094559;28;19937;-82
2024/01/10 02:07:55;;;;;;;;;;;0.20;80.50;;;;;;4074641;29;19929;-81
2024/01/10 02:10:14;;;;;;;;;;;0.20;80.50;;;;;;4074932;29;19953;-82
2024/01/10 02:12:33;;;;;;;;;;;0.20;80.50;;;;;;4075797;29;19925;-81
2024/01/10 02:14:53;;;;;;;;;;;0.20;80.50;;;;;;4090424;28;19937;-81
2024/01/10 02:17:12;;;;;;;;;;;0.20;80.60;;;;;;4077273;29;20367;-82
2024/01/10 02:19:32;;;;;;;;;;;0.20;81.30;;;;;;4076256;29;20436;-82
2024/01/10 02:21:51;;;;;;;;;;;0.20;80.70;;;;;;4075519;29;20017;-82
2024/01/10 02:24:10;;;;;;;;;;;0.20;81.30;;;;;;4079837;29;20456;-82
2024/01/10 02:26:29;;;;;;;;;;;0.20;80.50;;;;;;4077089;29;20379;-81
2024/01/10 02:28:48;;;;;;;;;;;0.20;80.50;;;;;;4077719;29;19929;-82
2024/01/10 02:31:08;;;;;;;;;;;0.20;80.50;;;;;;4077198;29;19925;-82
2024/01/10 02:33:27;;;;;;;;;;;0.20;80.50;;;;;;4078747;29;20285;-81
2024/01/10 02:35:46;;;;;;;;;;;0.20;80.50;;;;;;4075908;29;20364;-81
2024/01/10 02:38:06;;;;;;;;;;;0.20;80.40;;;;;;4085671;29;20012;-80
2024/01/10 02:40:25;;;;;;;;;;;0.40;80.50;;;;;;4098316;28;20049;-80
2024/01/10 02:42:45;;;;;;;;;;;0.20;80.40;;;;;;4076585;29;19974;-82
2024/01/10 02:45:04;;;;;;;;;;;0.20;80.40;;;;;;4081086;29;19922;-82
2024/01/10 02:47:23;;;;;;;;;;;0.20;81.20;;;;;;4074807;29;19929;-82
2024/01/10 02:49:42;;;;;;;;;;;0.20;80.40;;;;;;4076463;29;20022;-83
2024/01/10 02:52:02;;;;;;;;;;;0.20;80.50;;;;;;4086635;28;19918;-81
2024/01/10 02:54:21;;;;;;;;;;;0.20;81.30;;;;;;4077806;29;19973;-81
2024/01/10 02:56:40;;;;;;;;;;;0.20;80.50;;;;;;4072315;29;20176;-81
2024/01/10 02:58:59;;;;;;;;;;;0.20;80.60;;;;;;4076816;29;20320;-82
2024/01/10 03:01:19;;;;;;;;;;;0.20;80.60;;;;;;4073271;29;20009;-80
2024/01/10 03:03:38;;;;;;;;;;;0.20;80.60;;;;;;4084060;28;19953;-81
2024/01/10 03:05:57;;;;;;;;;;;0.20;80.70;;;;;;4084187;28;19917;-81
2024/01/10 03:08:17;;;;;;;;;;;0.20;80.70;;;;;;4070732;29;20439;-81
2024/01/10 03:10:36;;;;;;;;;;;0.20;80.80;;;;;;4074176;29;19925;-82
2024/01/10 03:12:55;;;;;;;;;;;0.20;81.50;;;;;;4076475;29;19982;-81
2024/01/10 03:15:15;;;;;;;;;;;0.30;80.80;;;;;;4078942;29;19930;-81
2024/01/10 03:17:35;;;;;;;;;;;0.30;80.90;;;;;;4071419;29;20320;-81
2024/01/10 03:19:54;;;;;;;;;;;0.30;80.90;;;;;;4076828;29;19929;-81
2024/01/10 03:22:13;;;;;;;;;;;0.30;80.90;;;;;;4075852;29;19930;-81
2024/01/10 03:24:33;;;;;;;;;;;0.30;80.90;;;;;;4096504;28;19937;-81
2024/01/10 03:26:52;;;;;;;;;;;0.30;80.90;;;;;;4110692;28;20196;-81
2024/01/10 03:29:12;;;;;;;;;;;0.30;80.90;;;;;;4096396;28;19966;-81
2024/01/10 03:31:31;;;;;;;;;;;0.30;80.90;;;;;;4075142;29;20270;-81
2024/01/10 03:33:50;;;;;;;;;;;0.40;81.00;;;;;;4074508;29;20762;-81
2024/01/10 03:36:14;;;;;;;;;;;0.30;81.00;;;;;;4073817;29;19925;-80
2024/01/10 03:38:33;;;;;;;;;;;0.30;81.00;;;;;;4075893;29;20415;-82
2024/01/10 03:40:53;;;;;;;;;;;0.50;81.10;;;;;;4074116;29;19930;-81
2024/01/10 03:43:12;;;;;;;;;;;0.50;81.10;;;;;;4078669;29;20236;-82
2024/01/10 03:45:31;;;;;;;;;;;0.40;81.00;;;;;;4092317;28;19917;-80
2024/01/10 03:47:51;;;;;;;;;;;0.40;81.00;;;;;;4075802;29;20427;-81
2024/01/10 03:50:10;;;;;;;;;;;0.40;81.80;;;;;;4078267;29;19930;-82
2024/01/10 03:52:29;;;;;;;;;;;0.40;81.80;;;;;;4078732;28;20305;-82
2024/01/10 03:54:48;;;;;;;;;;;0.40;81.10;;;;;;4080783;29;20009;-82
2024/01/10 03:57:07;;;;;;;;;;;0.50;81.90;;;;;;4077177;29;19922;-82
2024/01/10 03:59:27;;;;;;;;;;;0.40;81.10;;;;;;4077697;29;19922;-81
2024/01/10 04:01:46;;;;;;;;;;;0.40;81.10;;;;;;4077057;29;19922;-81
2024/01/10 04:04:05;;;;;;;;;;;0.50;82.10;;;;;;4092231;28;20089;-81
2024/01/10 04:06:25;;;;;;;;;;;0.40;81.30;;;;;;4076159;29;20053;-81
2024/01/10 04:08:44;;;;;;;;;;;0.50;81.40;;;;;;4079863;29;19929;-81
2024/01/10 04:11:03;;;;;;;;;;;0.40;81.30;;;;;;4077535;29;20625;-81
2024/01/10 04:13:22;;;;;;;;;;;0.50;81.40;;;;;;4077928;29;19945;-82
2024/01/10 04:15:42;;;;;;;;;;;0.50;81.40;;;;;;4078209;29;19934;-83
2024/01/10 04:18:01;;;;;;;;;;;0.50;81.40;;;;;;4077222;29;19921;-82
2024/01/10 04:20:21;;;;;;;;;;;0.50;82.00;;;;;;4090057;28;19925;-82
2024/01/10 04:22:40;;;;;;;;;;;0.50;82.00;;;;;;4078856;29;19977;-82
2024/01/10 04:25:00;;;;;;;;;;;0.60;82.10;;;;;;4080613;29;19937;-81
2024/01/10 04:27:19;;;;;;;;;;;0.60;81.40;;;;;;4071419;29;19976;-81
2024/01/10 04:29:38;;;;;;;;;;;0.60;81.40;;;;;;4083587;29;19926;-81
2024/01/10 04:31:58;;;;;;;;;;;0.60;81.30;;;;;;4092116;29;19926;-81
2024/01/10 04:34:17;;;;;;;;;;;0.60;81.30;;;;;;4094477;28;19977;-81
2024/01/10 04:36:37;;;;;;;;;;;0.60;81.20;;;;;;4079132;29;20013;-82
2024/01/10 04:38:56;;;;;;;;;;;0.60;81.20;;;;;;4082485;29;19930;-82
2024/01/10 04:41:16;;;;;;;;;;;0.60;81.30;;;;;;4079315;29;19978;-82
2024/01/10 04:43:35;;;;;;;;;;;0.70;81.40;;;;;;4081958;29;20707;-82
2024/01/10 04:45:54;;;;;;;;;;;0.60;81.30;;;;;;4078087;29;19925;-82
2024/01/10 04:48:14;;;;;;;;;;;0.60;81.40;;;;;;4092009;28;20333;-81
2024/01/10 04:50:34;;;;;;;;;;;0.70;82.20;;;;;;4094521;28;19968;-81
2024/01/10 04:52:53;;;;;;;;;;;0.60;81.50;;;;;;4084008;29;20352;-81
2024/01/10 04:55:12;;;;;;;;;;;0.70;81.80;;;;;;4091012;28;19925;-82
2024/01/10 04:57:32;;;;;;;;;;;0.70;81.70;;;;;;4081370;29;19938;-81
2024/01/10 04:59:51;;;;;;;;;;;0.70;81.60;;;;;;4081492;29;19969;-81
2024/01/10 05:02:10;;;;;;;;;;;0.70;81.60;;;;;;4082238;29;20042;-81
2024/01/10 05:04:30;;;;;;;;;;;0.70;81.50;;;;;;4092884;28;19929;-82
2024/01/10 05:06:49;;;;;;;;;;;0.70;81.50;;;;;;4080027;29;19973;-82
2024/01/10 05:09:09;;;;;;;;;;;0.70;81.60;;;;;;4079695;29;19974;-81
2024/01/10 05:11:28;;;;;;;;;;;0.80;81.60;;;;;;4082581;29;19945;-81
2024/01/10 05:13:47;;;;;;;;;;;0.70;81.60;;;;;;4082634;29;19925;-81
2024/01/10 05:16:07;;;;;;;;;;;0.70;81.60;;;;;;4079207;29;20372;-81
2024/01/10 05:18:26;;;;;;;;;;;0.80;82.40;;;;;;4083413;29;19925;-82
2024/01/10 05:20:45;;;;;;;;;;;0.60;81.40;;;;;;4078816;29;20258;-81
2024/01/10 05:23:05;;;;;;;;;;;0.80;81.50;;;;;;4076960;29;19957;-82
2024/01/10 05:25:24;;;;;;;;;;;0.80;81.50;;;;;;4076504;29;19936;-82
2024/01/10 05:27:43;;;;;;;;;;;0.80;81.50;;;;;;4075054;29;19933;-81
2024/01/10 05:30:03;;;;;;;;;;;0.80;81.50;;;;;;4075809;29;19926;-81
2024/01/10 05:32:22;;;;;;;;;;;0.80;81.50;;;;;;4090592;28;19973;-81
2024/01/10 05:34:41;;;;;;;;;;;0.80;81.50;;;;;;4079376;29;19922;-82
2024/01/10 05:37:00;;;;;;;;;;;0.80;81.50;;;;;;4078979;29;20328;-81
2024/01/10 05:39:21;;;;;;;;;;;0.80;81.60;;;;;;4076060;29;19986;-81
2024/01/10 05:41:43;;;;;;;;;;;0.80;81.70;;;;;;4078863;29;20476;-81
2024/01/10 05:44:05;;;;;;;;;;;0.80;81.70;;;;;;4077327;29;19932;-81
2024/01/10 05:46:25;;;;;;;;;;;0.90;81.80;;;;;;4090552;28;19925;-81
2024/01/10 05:48:49;;;;;;;;;;;0.90;81.80;;;;;;4077675;29;21745;-81
2024/01/10 05:51:08;;;;;;;;;;;0.90;81.80;;;;;;4072880;29;20041;-81
2024/01/10 05:53:28;;;;;;;;;;;1.00;81.90;;;;;;4078555;29;19946;-81
2024/01/10 05:55:47;;;;;;;;;;;0.90;81.80;;;;;;4076075;29;20295;-81
2024/01/10 05:58:06;;;;;;;;;;;0.90;81.80;;;;;;4077839;29;19925;-81
2024/01/10 06:00:25;;;;;;;;;;;1.00;81.90;;;;;;4087735;28;19980;-79
2024/01/10 06:02:45;;;;;;;;;;;0.90;81.70;;;;;;4077771;29;19968;-82
2024/01/10 06:05:06;;;;;;;;;;;1.00;81.80;;;;;;4078089;28;20356;-82
2024/01/10 06:07:25;;;;;;;;;;;1.00;81.80;;;;;;4077677;29;20368;-80
2024/01/10 06:09:44;;;;;;;;;;;1.00;81.80;;;;;;4072595;29;20396;-81
2024/01/10 06:12:03;;;;;;;;;;;1.00;82.60;;;;;;4075898;29;19926;-81
2024/01/10 06:14:22;;;;;;;;;;;1.00;81.80;;;;;;4075030;29;20278;-81
2024/01/10 06:16:42;;;;;;;;;;;1.10;81.80;;;;;;4075883;29;20281;-82
2024/01/10 06:19:01;;;;;;;;;;;1.00;81.70;;;;;;4076648;29;19998;-82
2024/01/10 06:21:20;;;;;;;;;;;1.10;81.80;;;;;;4075282;29;19950;-81
2024/01/10 06:23:39;;;;;;;;;;;1.10;81.80;;;;;;4106715;28;19909;-81
2024/01/10 06:25:59;;;;;;;;;;;1.10;81.80;;;;;;4079266;29;20324;-82
2024/01/10 06:28:18;;;;;;;;;;;1.10;82.00;;;;;;4075952;29;19926;-83
2024/01/10 06:30:37;;;;;;;;;;;1.10;82.00;;;;;;4088926;28;19950;-82
2024/01/10 06:32:57;;;;;;;;;;;1.10;81.80;;;;;;4091396;28;20620;-82
2024/01/10 06:35:16;;;;;;;;;;;1.10;82.10;;;;;;4075034;29;20292;-82
2024/01/10 06:37:35;;;;;;;;;;;1.00;83.00;;;;;;4079262;29;20131;-82
2024/01/10 06:39:54;;;;;;;;;;;1.00;82.30;;;;;;4086977;28;19916;-82
2024/01/10 06:42:14;;;;;;;;;;;1.10;82.30;;;;;;4076945;29;19941;-82
2024/01/10 06:44:33;;;;;;;;;;;1.10;82.40;;;;;;4072675;29;20613;-83
2024/01/10 06:46:52;;;;;;;;;;;1.10;82.40;;;;;;4073945;29;19933;-83
2024/01/10 06:49:12;;;;;;;;;;;1.10;82.50;;;;;;4084490;28;19929;-83
2024/01/10 06:51:31;;;;;;;;;;;1.10;82.50;;;;;;4075602;29;19974;-82
2024/01/10 06:53:50;;;;;;;;;;;1.10;82.20;;;;;;4078525;29;20009;-82
2024/01/10 06:56:09;;;;;;;;;;;1.30;82.60;;;;;;4073891;29;19921;-82
2024/01/10 06:58:29;;;;;;;;;;;1.10;82.20;;;;;;4088727;28;19926;-82
2024/01/10 07:00:50;;;;;;;;;;;1.10;82.40;;;;;;4074011;29;20657;-83
2024/01/10 07:03:09;;;;;;;;;;;1.10;83.20;;;;;;4089451;28;19930;-82
2024/01/10 07:05:31;;;;;;;;;;;1.30;83.20;;;;;;4078768;29;20445;-80
2024/01/10 07:07:50;;;;;;;;;;;1.10;83.10;;;;;;4086431;28;19993;-82
2024/01/10 07:10:10;;;;;;;;;;;1.10;82.30;;;;;;4089375;28;20410;-83
2024/01/10 07:12:29;;;;;;;;;;;1.20;83.10;;;;;;4082004;28;19958;-83
2024/01/10 07:14:48;;;;;;;;;;;1.20;82.30;;;;;;4084066;28;20016;-82
2024/01/10 07:17:07;;;;;;;;;;;1.20;82.20;;;;;;4075181;29;19922;-81
2024/01/10 07:19:27;;;;;;;;;;;1.20;82.20;;;;;;4086735;28;20463;-83
2024/01/10 07:21:46;;;;;;;;;;;1.20;82.30;;;;;;4078144;29;20053;-81
2024/01/10 07:24:05;;;;;;;;;;;1.30;82.30;;;;;;4090304;28;20041;-82
2024/01/10 07:26:27;;;;;;;;;;;1.20;82.20;;;;;;4073701;29;19925;-82
2024/01/10 07:28:46;;;;;;;;;;;1.20;82.30;;;;;;4077483;29;20388;-82
2024/01/10 07:31:06;;;;;;;;;;;1.30;82.40;;;;;;4078633;29;20086;-82
2024/01/10 07:33:25;;;;;;;;;;;1.20;82.30;;;;;;4077178;29;20782;-82
2024/01/10 07:35:44;;;;;;;;;;;1.30;82.30;;;;;;4080920;29;20057;-83
2024/01/10 07:38:03;;;;;;;;;;;1.30;82.30;;;;;;4075171;29;19951;-83
2024/01/10 07:40:23;;;;;;;;;;;1.30;82.30;;;;;;4078043;29;20532;-82
2024/01/10 07:42:42;;;;;;;;;;;1.30;83.00;;;;;;4091287;28;19966;-83
2024/01/10 07:45:04;;;;;;;;;;;1.30;83.00;;;;;;4078550;29;20017;-81
2024/01/10 07:47:22;;;;;;;;;;;1.30;82.30;;;;;;4079117;29;20528;-83
2024/01/10 07:49:41;;;;;;;;;;;1.30;83.00;;;;;;4078817;29;19932;-82
2024/01/10 07:52:02;;;;;;;;;;;1.30;82.20;;;;;;4078342;29;20036;-83
2024/01/10 07:54:22;;;;;;;;;;;1.40;82.30;;;;;;4076483;29;19925;-83
2024/01/10 07:56:42;;;;;;;;;;;1.30;82.20;;;;;;4080886;29;20076;-83
2024/01/10 07:59:01;;;;;;;;;;;1.30;82.20;;;;;;4089218;28;20025;-83
2024/01/10 08:01:21;;;;;;;;;;;1.30;82.20;;;;;;4075755;29;19980;-81
2024/01/10 08:03:40;;;;;;;;;;;1.30;82.10;;;;;;4088528;28;20533;-82
2024/01/10 08:05:59;;;;;;;;;;;1.40;82.20;;;;;;4077616;29;20293;-82
2024/01/10 08:08:18;;;;;;;;;;;1.30;82.10;;;;;;4077026;29;20119;-83
2024/01/10 08:10:37;;;;;;;;;;;1.40;82.20;;;;;;4079856;29;19930;-83
2024/01/10 08:12:57;;;;;;;;;;;1.40;82.30;;;;;;4077724;29;19925;-82
2024/01/10 08:15:16;;;;;;;;;;;1.40;82.20;;;;;;4089268;28;19925;-83
2024/01/10 08:17:37;;;;;;;;;;;1.40;82.10;;;;;;4087053;29;19921;-81
2024/01/10 08:19:56;;;;;;;;;;;1.40;82.10;;;;;;4089749;28;19922;-83
2024/01/10 08:22:15;;;;;;;;;;;1.40;82.10;;;;;;4076906;29;19930;-82
2024/01/10 08:24:34;;;;;;;;;;;1.40;82.10;;;;;;4080225;29;19921;-83
2024/01/10 08:26:54;;;;;;;;;;;1.40;82.10;;;;;;4076524;29;20091;-82
2024/01/10 08:29:15;;;;;;;;;;;1.40;82.10;;;;;;4076659;29;20054;-83
2024/01/10 08:31:34;;;;;;;;;;;1.40;82.10;;;;;;4076721;29;20137;-83
2024/01/10 08:33:53;;;;;;;;;;;1.40;82.00;;;;;;4077656;29;19932;-82
2024/01/10 08:36:14;;;;;;;;;;;1.40;82.10;;;;;;4076481;29;19921;-82
2024/01/10 08:38:35;;;;;;;;;;;1.40;82.10;;;;;;4088271;28;19986;-81
2024/01/10 08:40:54;;;;;;;;;;;1.40;82.10;;;;;;4081152;29;19970;-81
2024/01/10 08:43:13;;;;;;;;;;;1.30;82.30;;;;;;4109371;28;19949;-80
2024/01/10 08:45:32;;;;;;;;;;;1.30;82.30;;;;;;4097897;28;19906;-82
2024/01/10 08:47:53;;;;;;;;;;;1.30;82.30;;;;;;4097914;28;19949;-82
2024/01/10 08:50:12;;;;;;;;;;;1.30;82.30;;;;;;4090386;28;20031;-82
2024/01/10 08:52:31;;;;;;;;;;;1.30;82.20;;;;;;4079603;29;19925;-81
2024/01/10 08:54:50;;;;;;;;;;;1.40;82.40;;;;;;4090048;28;20773;-83
2024/01/10 08:57:10;;;;;;;;;;;1.30;83.10;;;;;;4077895;29;20027;-83
2024/01/10 08:59:29;;;;;;;;;;;1.30;82.50;;;;;;4077653;29;20400;-83
2024/01/10 09:01:48;;;;;;;;;;;1.30;82.60;;;;;;4071334;29;19931;-80
2024/01/10 09:04:07;;;;;;;;;;;1.40;83.40;;;;;;4070630;29;19938;-83
2024/01/10 09:06:27;;;;;;;;;;;1.30;82.50;;;;;;4073449;29;19929;-83
2024/01/10 09:08:46;;;;;;;;;;;1.40;82.50;;;;;;4074053;29;19982;-82
2024/01/10 09:11:05;;;;;;;;;;;1.40;82.50;;;;;;4078371;29;19930;-82
2024/01/10 09:13:24;;;;;;;;;;;1.40;82.50;;;;;;4077390;29;20030;-83
2024/01/10 09:15:44;;;;;;;;;;;1.40;82.60;;;;;;4088260;28;19929;-83
2024/01/10 09:18:03;;;;;;;;;;;1.40;82.60;;;;;;4075338;29;19930;-82
2024/01/10 09:20:23;;;;;;;;;;;1.40;82.60;;;;;;4074954;29;19969;-83
2024/01/10 09:22:42;;;;;;;;;;;1.40;82.50;;;;;;4078010;29;19929;-83
2024/01/10 09:25:04;;;;;;;;;;;1.40;82.50;;;;;;4084983;28;19956;-83
2024/01/10 09:27:23;;;;;;;;;;;1.50;83.30;;;;;;4072453;29;19929;-83
2024/01/10 09:29:42;;;;;;;;;;;1.50;83.40;;;;;;4074930;29;19962;-83
2024/01/10 09:32:02;;;;;;;;;;;1.50;82.60;;;;;;4080422;29;19943;-81
2024/01/10 09:34:21;;;;;;;;;;;1.60;82.60;;;;;;4077545;29;19926;-83
2024/01/10 09:36:40;;;;;;;;;;;1.50;82.50;;;;;;4073628;29;19926;-81
2024/01/10 09:38:59;;;;;;;;;;;1.50;82.50;;;;;;4073638;29;19929;-83
2024/01/10 09:41:18;;;;;;;;;;;1.50;82.40;;;;;;4075497;29;19949;-83
2024/01/10 09:43:38;;;;;;;;;;;1.50;83.10;;;;;;4076908;29;20399;-81
2024/01/10 09:45:58;;;;;;;;;;;1.50;82.40;;;;;;4076316;29;19926;-83
2024/01/10 09:48:17;;;;;;;;;;;1.50;82.30;;;;;;4078675;29;19925;-84
2024/01/10 09:50:38;;;;;;;;;;;1.50;82.40;;;;;;4088821;28;19925;-83
2024/01/10 09:53:03;;;;;;;;;;;1.50;82.30;;;;;;4078373;29;20657;-84
2024/01/10 09:55:25;;;;;;;;;;;1.50;82.30;;;;;;4078377;29;19994;-84
2024/01/10 09:57:45;;;;;;;;;;;1.50;83.00;;;;;;4075473;29;19942;-83
2024/01/10 10:00:05;;;;;;;;;;;1.50;82.30;;;;;;4088213;28;19953;-83
2024/01/10 10:02:24;;;;;;;;;;;1.50;83.10;;;;;;4074601;29;20329;-84
2024/01/10 10:04:49;;;;;;;;;;;1.50;82.40;;;;;;4073511;29;20444;-83
2024/01/10 10:07:08;;;;;;;;;;;1.60;82.50;;;;;;4070389;29;19930;-83
2024/01/10 10:09:28;;;;;;;;;;;1.60;82.50;;;;;;4075740;29;20010;-83
2024/01/10 10:11:52;;;;;;;;;;;1.60;82.50;;;;;;4080479;29;19949;-81
2024/01/10 10:14:15;;;;;;;;;;;1.60;82.50;;;;;;4090686;28;19930;-83
2024/01/10 10:16:34;;;;;;;;;;;1.70;82.50;;;;;;4077487;29;20730;-83
2024/01/10 10:18:57;;;;;;;;;;;1.70;82.50;;;;;;4071571;29;19930;-83
2024/01/10 10:21:16;;;;;;;;;;;1.70;82.50;;;;;;4070480;29;19978;-82
2024/01/10 10:23:36;;;;;;;;;;;1.70;82.50;;;;;;4072878;29;20014;-84
2024/01/10 10:25:55;;;;;;;;;;;1.70;83.20;;;;;;4071508;29;20176;-83
2024/01/10 10:28:15;;;;;;;;;;;1.70;82.50;;;;;;4072266;29;19926;-82
2024/01/10 10:30:34;;;;;;;;;;;1.70;82.50;;;;;;4074057;29;20348;-83
2024/01/10 10:32:54;;;;;;;;;;;1.70;82.60;;;;;;4076020;29;19933;-83
2024/01/10 10:35:13;;;;;;;;;;;1.70;83.20;;;;;;4086659;28;20021;-82
2024/01/10 10:37:33;;;;;;;;;;;1.80;82.40;;;;;;4087137;28;19926;-82
2024/01/10 10:39:52;;;;;;;;;;;1.80;82.40;;;;;;4073245;29;20037;-83
2024/01/10 10:42:12;;;;;;;;;;;1.80;82.30;;;;;;4072732;29;20401;-84
2024/01/10 10:44:34;;;;;;;;;;;1.80;82.40;;;;;;4086726;28;19947;-82
2024/01/10 10:46:56;;;;;;;;;;;1.80;82.40;;;;;;4072060;29;20468;-83
2024/01/10 10:49:18;;;;;;;;;;;1.80;82.50;;;;;;4077428;29;20712;-83
2024/01/10 10:51:37;;;;;;;;;;;1.80;82.40;;;;;;4078186;29;20031;-83
2024/01/10 10:53:57;;;;;;;;;;;1.70;82.30;;;;;;4084067;29;19930;-83
2024/01/10 10:56:17;;;;;;;;;;;1.70;83.10;;;;;;4078511;29;20344;-82
2024/01/10 10:58:38;;;;;;;;;;;1.80;82.50;;;;;;4091512;28;20537;-82
2024/01/10 11:00:57;;;;;;;;;;;1.70;82.30;;;;;;4083376;28;20240;-82
2024/01/10 11:03:16;;;;;;;;;;;1.70;82.30;;;;;;4076761;29;19950;-84
2024/01/10 11:05:39;;;;;;;;;;;1.70;82.20;;;;;;4078238;29;20010;-83
2024/01/10 11:08:02;;;;;;;;;;;1.70;82.10;;;;;;4078855;29;19929;-83
2024/01/10 11:10:24;;;;;;;;;;;1.80;82.10;;;;;;4080174;29;20033;-82
2024/01/10 11:12:46;;;;;;;;;;;1.80;82.20;;;;;;4078036;29;19930;-82
2024/01/10 11:15:24;;;;;;;;;;;1.80;82.10;;;;;;4093243;28;19981;-82
2024/01/10 11:18:02;;;;;;;;;;;1.80;82.10;;;;;;4090600;28;19978;-79
2024/01/10 11:20:22;;;;;;;;;;;1.70;83.00;;;;;;4079866;29;19989;-82
2024/01/10 11:23:01;;;;;;;;;;;1.70;83.10;;;;;;4090554;28;19929;-83
2024/01/10 11:25:20;;;;;;;;;;;1.70;82.30;;;;;;4080988;29;19926;-83
2024/01/10 11:27:39;;;;;;;;;;;1.80;83.00;;;;;;4075212;29;19947;-83
2024/01/10 11:30:00;;;;;;;;;;;1.80;82.30;;;;;;4078609;29;19938;-83
2024/01/10 11:32:25;;;;;;;;;;;1.80;82.20;;;;;;4079250;29;19941;-83
2024/01/10 11:34:53;;;;;;;;;;;1.80;82.20;;;;;;4078359;29;20588;-82
2024/01/10 11:37:13;;;;;;;;;;;1.80;82.30;;;;;;4079518;29;19977;-82
2024/01/10 11:39:35;;;;;;;;;;;1.80;82.30;;;;;;4077855;29;19990;-82
2024/01/10 11:41:55;;;;;;;;;;;1.80;82.40;;;;;;4078667;29;20021;-84
2024/01/10 11:44:17;;;;;;;;;;;1.70;83.00;;;;;;4091830;28;19929;-84
2024/01/10 11:46:40;;;;;;;;;;;1.70;83.00;;;;;;4080044;29;19998;-83
2024/01/10 11:48:59;;;;;;;;;;;1.70;82.20;;;;;;4087365;28;20060;-84
2024/01/10 11:51:19;;;;;;;;;;;1.70;82.20;;;;;;4076295;29;19969;-84
2024/01/10 11:53:46;;;;;;;;;;;1.70;82.30;;;;;;4079208;29;19926;-82
2024/01/10 11:56:11;;;;;;;;;;;1.70;82.60;;;;;;4071715;29;19926;-83
2024/01/10 11:58:30;;;;;;;;;;;1.70;83.10;;;;;;4072161;29;19949;-80
2024/01/10 12:00:49;;;;;;;;;;;1.80;82.40;;;;;;4078610;29;19933;-83
2024/01/10 12:03:11;;;;;;;;;;;1.70;82.40;;;;;;4073510;29;20038;-83
2024/01/10 12:05:30;;;;;;;;;;;1.70;82.30;;;;;;4070993;29;20278;-80
2024/01/10 12:07:50;;;;;;;;;;;1.70;82.30;;;;;;4072559;29;19925;-82
2024/01/10 12:10:09;;;;;;;;;;;1.70;82.30;;;;;;4095719;28;19942;-83
2024/01/10 12:12:29;;;;;;;;;;;1.70;82.20;;;;;;4087458;28;19933;-83
2024/01/10 12:14:51;;;;;;;;;;;1.70;82.10;;;;;;4076942;29;20017;-84
2024/01/10 12:17:10;;;;;;;;;;;1.70;82.10;;;;;;4088738;28;19973;-83
2024/01/10 12:19:29;;;;;;;;;;;1.70;82.10;;;;;;4078445;29;19926;-83
2024/01/10 12:21:49;;;;;;;;;;;1.70;81.80;;;;;;4080235;29;19928;-84
2024/01/10 12:24:08;;;;;;;;;;;1.70;81.90;;;;;;4076094;29;20562;-82
2024/01/10 12:26:27;;;;;;;;;;;1.70;81.90;;;;;;4084384;29;20089;-84
2024/01/10 12:28:54;;;;;;;;;;;1.70;81.80;;;;;;4084311;29;20046;-82
2024/01/10 12:31:13;;;;;;;;;;;1.70;81.90;;;;;;4082939;29;20033;-83
2024/01/10 12:33:33;;;;;;;;;;;1.60;82.60;;;;;;4079100;29;19929;-82
2024/01/10 12:36:04;;;;;;;;;;;1.70;82.10;;;;;;4081429;29;19929;-84
2024/01/10 12:38:23;;;;;;;;;;;1.70;82.30;;;;;;4078966;29;19934;-83
2024/01/10 12:40:42;;;;;;;;;;;1.60;82.20;;;;;;4089970;28;19921;-82
2024/01/10 12:43:05;;;;;;;;;;;1.70;82.30;;;;;;4077844;29;19929;-83
2024/01/10 12:45:24;;;;;;;;;;;1.70;82.20;;;;;;4091160;28;19926;-82
2024/01/10 12:47:44;;;;;;;;;;;1.70;82.10;;;;;;4095828;28;20020;-83
2024/01/10 12:50:03;;;;;;;;;;;1.70;81.90;;;;;;4078171;29;20440;-82
2024/01/10 12:52:24;;;;;;;;;;;1.70;81.70;;;;;;4078874;29;19982;-82
2024/01/10 12:54:43;;;;;;;;;;;1.70;81.70;;;;;;4077601;29;19934;-82
2024/01/10 12:57:03;;;;;;;;;;;1.60;81.90;;;;;;4086472;28;19986;-83
2024/01/10 12:59:22;;;;;;;;;;;1.70;81.90;;;;;;4076610;29;20706;-83
2024/01/10 13:01:41;;;;;;;;;;;1.60;82.60;;;;;;4078587;29;20329;-82
2024/01/10 13:04:00;;;;;;;;;;;1.60;82.60;;;;;;4075088;29;19986;-83
2024/01/10 13:06:22;;;;;;;;;;;1.60;81.80;;;;;;4073918;29;19937;-81
2024/01/10 13:08:42;;;;;;;;;;;1.60;81.70;;;;;;4077350;29;19939;-83
2024/01/10 13:11:01;;;;;;;;;;;1.60;81.60;;;;;;4087588;28;20029;-82
2024/01/10 13:13:21;;;;;;;;;;;1.60;81.60;;;;;;4077704;29;19913;-83
2024/01/10 13:15:42;;;;;;;;;;;1.60;81.50;;;;;;4071333;29;19926;-82
2024/01/10 13:18:01;;;;;;;;;;;1.60;81.60;;;;;;4086766;28;20437;-82
2024/01/10 13:20:20;;;;;;;;;;;1.60;81.70;;;;;;4073010;29;19991;-82
2024/01/10 13:22:39;;;;;;;;;;;1.60;81.70;;;;;;4075688;29;20350;-82
2024/01/10 13:24:55;;;;;;;;;;;1.60;81.70;;;;;;4076264;29;19930;-82
2024/01/10 13:27:14;;;;;;;;;;;1.60;81.70;;;;;;4073778;28;19950;-83
2024/01/10 13:29:34;;;;;;;;;;;1.60;81.80;;;;;;4079153;29;19946;-82
2024/01/10 13:31:53;;;;;;;;;;;1.60;82.60;;;;;;4077900;29;20033;-83
2024/01/10 13:34:12;;;;;;;;;;;1.60;81.70;;;;;;4075137;29;20010;-83
2024/01/10 13:36:32;;;;;;;;;;;1.60;82.50;;;;;;4075932;29;19941;-81
2024/01/10 13:38:51;;;;;;;;;;;1.60;81.80;;;;;;4075255;29;19925;-83
2024/01/10 13:41:10;;;;;;;;;;;1.60;82.50;;;;;;4075181;29;19942;-83
2024/01/10 13:43:30;;;;;;;;;;;1.80;81.90;;;;;;4087930;28;19977;-83
2024/01/10 13:45:49;;;;;;;;;;;1.60;82.60;;;;;;4076110;29;20036;-82